Terminal Aerodrome Forecast
Issued by NWS Memphis, TN

Home | Current Version | Previous Version | Text Only | Print | Product List | Glossary On
Versions: 1 2 3 4 5 6 7 8 9 10 11 12 13 14 15
000
FTUS44 KMEG 251130
TAFMKL
TAF
KMKL 251130Z 2512/2612 19010KT P6SM SCT009 SCT012 BKN250
      TEMPO 2512/2515 BKN010
     FM251500 24015G22KT P6SM SCT025
     FM260000 26010KT P6SM SCT060
      TEMPO 2608/2612 34006KT BKN008 OVC012=

USA.gov is the U.S. government's official web portal to all federal, state and local government web resources and services.